sensor_id;sensor_type;location;lat;lon;timestamp;P1;durP1;ratioP1;P2;durP2;ratioP2
21168;SDS011;10742;51.816;8.662;2023-10-09T00:01:46;18.57;;;4.07;;
21168;SDS011;10742;51.816;8.662;2023-10-09T00:05:07;13.50;;;3.87;;
21168;SDS011;10742;51.816;8.662;2023-10-09T00:08:32;14.73;;;4.07;;
21168;SDS011;10742;51.816;8.662;2023-10-09T00:11:55;11.90;;;4.17;;
21168;SDS011;10742;51.816;8.662;2023-10-09T00:15:20;10.83;;;3.90;;
21168;SDS011;10742;51.816;8.662;2023-10-09T00:18:42;11.40;;;4.37;;
21168;SDS011;10742;51.816;8.662;2023-10-09T00:22:07;13.60;;;3.83;;
21168;SDS011;10742;51.816;8.662;2023-10-09T00:25:32;13.13;;;4.33;;
21168;SDS011;10742;51.816;8.662;2023-10-09T00:28:56;18.03;;;4.70;;
21168;SDS011;10742;51.816;8.662;2023-10-09T00:32:17;14.90;;;4.70;;
21168;SDS011;10742;51.816;8.662;2023-10-09T00:35:47;16.17;;;5.27;;
21168;SDS011;10742;51.816;8.662;2023-10-09T00:39:14;16.83;;;5.07;;
21168;SDS011;10742;51.816;8.662;2023-10-09T00:42:43;17.60;;;5.50;;
21168;SDS011;10742;51.816;8.662;2023-10-09T00:46:04;19.10;;;5.10;;
21168;SDS011;10742;51.816;8.662;2023-10-09T00:49:37;15.10;;;4.80;;
21168;SDS011;10742;51.816;8.662;2023-10-09T00:53:02;11.97;;;4.57;;
21168;SDS011;10742;51.816;8.662;2023-10-09T00:56:32;13.07;;;4.50;;
21168;SDS011;10742;51.816;8.662;2023-10-09T01:00:00;15.80;;;4.77;;
21168;SDS011;10742;51.816;8.662;2023-10-09T01:03:21;15.13;;;5.73;;
21168;SDS011;10742;51.816;8.662;2023-10-09T01:06:43;19.83;;;5.50;;
21168;SDS011;10742;51.816;8.662;2023-10-09T01:10:08;14.40;;;5.00;;
21168;SDS011;10742;51.816;8.662;2023-10-09T01:13:30;19.93;;;5.63;;
21168;SDS011;10742;51.816;8.662;2023-10-09T01:17:13;15.07;;;5.27;;
21168;SDS011;10742;51.816;8.662;2023-10-09T01:20:49;15.87;;;5.40;;
21168;SDS011;10742;51.816;8.662;2023-10-09T01:24:13;16.70;;;5.83;;
21168;SDS011;10742;51.816;8.662;2023-10-09T01:27:37;15.67;;;5.73;;
21168;SDS011;10742;51.816;8.662;2023-10-09T01:31:01;16.63;;;5.57;;
21168;SDS011;10742;51.816;8.662;2023-10-09T01:34:25;19.20;;;5.83;;
21168;SDS011;10742;51.816;8.662;2023-10-09T01:38:03;14.90;;;5.37;;
21168;SDS011;10742;51.816;8.662;2023-10-09T01:41:31;15.60;;;5.77;;
21168;SDS011;10742;51.816;8.662;2023-10-09T01:44:54;17.10;;;5.73;;
21168;SDS011;10742;51.816;8.662;2023-10-09T01:48:16;17.30;;;5.90;;
21168;SDS011;10742;51.816;8.662;2023-10-09T01:51:44;12.80;;;5.10;;
21168;SDS011;10742;51.816;8.662;2023-10-09T01:55:05;16.67;;;5.57;;
21168;SDS011;10742;51.816;8.662;2023-10-09T01:58:29;15.30;;;5.60;;
21168;SDS011;10742;51.816;8.662;2023-10-09T02:01:53;15.17;;;6.00;;
21168;SDS011;10742;51.816;8.662;2023-10-09T02:05:19;18.33;;;6.37;;
21168;SDS011;10742;51.816;8.662;2023-10-09T02:08:40;19.43;;;5.77;;
21168;SDS011;10742;51.816;8.662;2023-10-09T02:12:09;16.83;;;5.87;;
21168;SDS011;10742;51.816;8.662;2023-10-09T02:15:30;19.10;;;6.20;;
21168;SDS011;10742;51.816;8.662;2023-10-09T02:19:01;18.43;;;5.50;;
21168;SDS011;10742;51.816;8.662;2023-10-09T02:22:28;16.13;;;5.77;;
21168;SDS011;10742;51.816;8.662;2023-10-09T02:25:58;18.03;;;5.57;;
21168;SDS011;10742;51.816;8.662;2023-10-09T02:29:26;18.67;;;6.40;;
21168;SDS011;10742;51.816;8.662;2023-10-09T02:32:47;18.77;;;6.20;;
21168;SDS011;10742;51.816;8.662;2023-10-09T02:36:13;19.40;;;6.80;;
21168;SDS011;10742;51.816;8.662;2023-10-09T02:39:34;18.37;;;6.83;;
21168;SDS011;10742;51.816;8.662;2023-10-09T02:43:03;19.67;;;7.03;;
21168;SDS011;10742;51.816;8.662;2023-10-09T02:46:24;19.53;;;7.23;;
21168;SDS011;10742;51.816;8.662;2023-10-09T02:49:52;29.57;;;8.30;;
21168;SDS011;10742;51.816;8.662;2023-10-09T02:53:13;20.10;;;7.63;;
21168;SDS011;10742;51.816;8.662;2023-10-09T02:56:39;24.50;;;7.90;;
21168;SDS011;10742;51.816;8.662;2023-10-09T03:00:04;22.87;;;8.20;;
21168;SDS011;10742;51.816;8.662;2023-10-09T03:03:40;24.10;;;8.07;;
21168;SDS011;10742;51.816;8.662;2023-10-09T03:07:06;22.70;;;8.37;;
21168;SDS011;10742;51.816;8.662;2023-10-09T03:10:28;24.57;;;9.20;;
21168;SDS011;10742;51.816;8.662;2023-10-09T03:13:49;20.60;;;8.43;;
21168;SDS011;10742;51.816;8.662;2023-10-09T03:17:11;25.57;;;9.20;;
21168;SDS011;10742;51.816;8.662;2023-10-09T03:20:32;24.20;;;8.27;;
21168;SDS011;10742;51.816;8.662;2023-10-09T03:23:55;24.13;;;8.17;;
21168;SDS011;10742;51.816;8.662;2023-10-09T03:27:17;22.00;;;8.37;;
21168;SDS011;10742;51.816;8.662;2023-10-09T03:30:38;21.67;;;9.20;;
21168;SDS011;10742;51.816;8.662;2023-10-09T03:34:00;23.37;;;8.70;;
21168;SDS011;10742;51.816;8.662;2023-10-09T03:37:23;26.27;;;9.30;;
21168;SDS011;10742;51.816;8.662;2023-10-09T03:40:54;25.27;;;9.07;;
21168;SDS011;10742;51.816;8.662;2023-10-09T03:44:15;24.90;;;10.03;;
21168;SDS011;10742;51.816;8.662;2023-10-09T03:47:38;26.37;;;9.83;;
21168;SDS011;10742;51.816;8.662;2023-10-09T03:51:03;27.50;;;9.87;;
21168;SDS011;10742;51.816;8.662;2023-10-09T03:54:33;28.87;;;10.43;;
21168;SDS011;10742;51.816;8.662;2023-10-09T03:57:56;28.33;;;10.33;;
21168;SDS011;10742;51.816;8.662;2023-10-09T04:01:20;30.97;;;10.50;;
21168;SDS011;10742;51.816;8.662;2023-10-09T04:05:01;25.90;;;10.10;;
21168;SDS011;10742;51.816;8.662;2023-10-09T04:08:22;29.20;;;11.17;;
21168;SDS011;10742;51.816;8.662;2023-10-09T04:11:51;29.17;;;11.23;;
21168;SDS011;10742;51.816;8.662;2023-10-09T04:15:31;26.47;;;10.40;;
21168;SDS011;10742;51.816;8.662;2023-10-09T04:18:59;27.97;;;11.43;;
21168;SDS011;10742;51.816;8.662;2023-10-09T04:22:26;24.30;;;9.97;;
21168;SDS011;10742;51.816;8.662;2023-10-09T04:25:47;23.73;;;8.00;;
21168;SDS011;10742;51.816;8.662;2023-10-09T04:29:11;29.30;;;10.77;;
21168;SDS011;10742;51.816;8.662;2023-10-09T04:32:46;24.87;;;9.33;;
21168;SDS011;10742;51.816;8.662;2023-10-09T04:36:10;28.07;;;11.07;;
21168;SDS011;10742;51.816;8.662;2023-10-09T04:39:43;28.37;;;11.23;;
21168;SDS011;10742;51.816;8.662;2023-10-09T04:43:08;24.57;;;9.27;;
21168;SDS011;10742;51.816;8.662;2023-10-09T04:46:40;28.77;;;10.43;;
21168;SDS011;10742;51.816;8.662;2023-10-09T04:50:05;27.97;;;10.70;;
21168;SDS011;10742;51.816;8.662;2023-10-09T04:53:32;27.60;;;10.77;;
21168;SDS011;10742;51.816;8.662;2023-10-09T04:57:04;23.20;;;10.20;;
21168;SDS011;10742;51.816;8.662;2023-10-09T05:00:38;26.37;;;9.87;;
21168;SDS011;10742;51.816;8.662;2023-10-09T05:03:59;25.37;;;10.33;;
21168;SDS011;10742;51.816;8.662;2023-10-09T05:07:24;35.70;;;11.27;;
21168;SDS011;10742;51.816;8.662;2023-10-09T05:11:04;28.87;;;10.27;;
21168;SDS011;10742;51.816;8.662;2023-10-09T05:14:25;27.77;;;10.13;;
21168;SDS011;10742;51.816;8.662;2023-10-09T05:17:59;24.90;;;9.63;;
21168;SDS011;10742;51.816;8.662;2023-10-09T05:21:30;25.23;;;10.63;;
21168;SDS011;10742;51.816;8.662;2023-10-09T05:24:54;23.10;;;9.50;;
21168;SDS011;10742;51.816;8.662;2023-10-09T05:28:15;26.80;;;10.40;;
21168;SDS011;10742;51.816;8.662;2023-10-09T05:31:46;23.27;;;10.37;;
21168;SDS011;10742;51.816;8.662;2023-10-09T05:35:28;27.87;;;10.43;;
21168;SDS011;10742;51.816;8.662;2023-10-09T05:39:00;30.37;;;10.23;;
21168;SDS011;10742;51.816;8.662;2023-10-09T05:42:40;25.83;;;10.53;;
21168;SDS011;10742;51.816;8.662;2023-10-09T05:46:01;27.50;;;10.63;;
21168;SDS011;10742;51.816;8.662;2023-10-09T05:49:28;26.37;;;9.70;;
21168;SDS011;10742;51.816;8.662;2023-10-09T05:53:06;27.90;;;10.07;;
21168;SDS011;10742;51.816;8.662;2023-10-09T05:56:50;26.37;;;10.07;;
21168;SDS011;10742;51.816;8.662;2023-10-09T06:00:50;25.47;;;10.30;;
21168;SDS011;10742;51.816;8.662;2023-10-09T06:04:30;26.80;;;10.63;;
21168;SDS011;10742;51.816;8.662;2023-10-09T06:08:10;25.47;;;11.03;;
21168;SDS011;10742;51.816;8.662;2023-10-09T06:11:33;27.10;;;11.07;;
21168;SDS011;10742;51.816;8.662;2023-10-09T06:14:54;26.40;;;10.67;;
21168;SDS011;10742;51.816;8.662;2023-10-09T06:18:18;28.10;;;10.63;;
21168;SDS011;10742;51.816;8.662;2023-10-09T06:21:55;26.13;;;10.60;;
21168;SDS011;10742;51.816;8.662;2023-10-09T06:25:24;24.33;;;10.43;;
21168;SDS011;10742;51.816;8.662;2023-10-09T06:28:53;24.80;;;10.30;;
21168;SDS011;10742;51.816;8.662;2023-10-09T06:32:34;24.63;;;9.50;;
21168;SDS011;10742;51.816;8.662;2023-10-09T06:35:57;25.60;;;10.27;;
21168;SDS011;10742;51.816;8.662;2023-10-09T06:39:28;25.80;;;10.10;;
21168;SDS011;10742;51.816;8.662;2023-10-09T06:43:08;25.33;;;10.03;;
21168;SDS011;10742;51.816;8.662;2023-10-09T06:46:38;23.43;;;9.43;;
21168;SDS011;10742;51.816;8.662;2023-10-09T06:50:05;26.77;;;10.63;;
21168;SDS011;10742;51.816;8.662;2023-10-09T06:53:42;24.27;;;9.93;;
21168;SDS011;10742;51.816;8.662;2023-10-09T06:56:59;23.63;;;9.97;;
21168;SDS011;10742;51.816;8.662;2023-10-09T07:00:32;31.80;;;10.30;;
21168;SDS011;10742;51.816;8.662;2023-10-09T07:03:58;25.37;;;9.27;;
21168;SDS011;10742;51.816;8.662;2023-10-09T07:07:12;25.63;;;9.87;;
21168;SDS011;10742;51.816;8.662;2023-10-09T07:10:18;25.63;;;9.33;;
21168;SDS011;10742;51.816;8.662;2023-10-09T07:13:34;25.00;;;9.07;;
21168;SDS011;10742;51.816;8.662;2023-10-09T07:16:38;26.50;;;9.50;;
21168;SDS011;10742;51.816;8.662;2023-10-09T07:19:41;19.13;;;7.87;;
21168;SDS011;10742;51.816;8.662;2023-10-09T07:22:45;23.43;;;8.80;;
21168;SDS011;10742;51.816;8.662;2023-10-09T07:26:15;21.83;;;8.63;;
21168;SDS011;10742;51.816;8.662;2023-10-09T07:29:20;23.07;;;9.10;;
21168;SDS011;10742;51.816;8.662;2023-10-09T07:32:25;23.40;;;9.10;;
21168;SDS011;10742;51.816;8.662;2023-10-09T07:35:31;23.87;;;9.53;;
21168;SDS011;10742;51.816;8.662;2023-10-09T07:38:45;24.50;;;9.20;;
21168;SDS011;10742;51.816;8.662;2023-10-09T07:41:57;21.43;;;8.47;;
21168;SDS011;10742;51.816;8.662;2023-10-09T07:45:17;24.50;;;8.70;;
21168;SDS011;10742;51.816;8.662;2023-10-09T07:48:22;22.53;;;8.43;;
21168;SDS011;10742;51.816;8.662;2023-10-09T07:51:27;25.53;;;9.63;;
21168;SDS011;10742;51.816;8.662;2023-10-09T07:54:32;21.93;;;8.23;;
21168;SDS011;10742;51.816;8.662;2023-10-09T07:57:35;23.40;;;8.47;;
21168;SDS011;10742;51.816;8.662;2023-10-09T08:00:40;24.30;;;8.50;;
21168;SDS011;10742;51.816;8.662;2023-10-09T08:04:12;21.53;;;9.00;;
21168;SDS011;10742;51.816;8.662;2023-10-09T08:07:15;22.43;;;8.37;;
21168;SDS011;10742;51.816;8.662;2023-10-09T08:10:21;21.60;;;7.80;;
21168;SDS011;10742;51.816;8.662;2023-10-09T08:13:23;22.20;;;8.23;;
21168;SDS011;10742;51.816;8.662;2023-10-09T08:16:44;29.23;;;8.63;;
21168;SDS011;10742;51.816;8.662;2023-10-09T08:19:48;25.13;;;7.83;;
21168;SDS011;10742;51.816;8.662;2023-10-09T08:23:00;23.20;;;8.70;;
21168;SDS011;10742;51.816;8.662;2023-10-09T08:26:06;23.88;;;8.60;;
21168;SDS011;10742;51.816;8.662;2023-10-09T08:29:15;24.57;;;9.10;;
21168;SDS011;10742;51.816;8.662;2023-10-09T08:32:19;19.50;;;7.77;;
21168;SDS011;10742;51.816;8.662;2023-10-09T08:35:44;22.17;;;7.43;;
21168;SDS011;10742;51.816;8.662;2023-10-09T08:38:53;22.87;;;8.10;;
21168;SDS011;10742;51.816;8.662;2023-10-09T08:42:03;24.57;;;9.07;;
21168;SDS011;10742;51.816;8.662;2023-10-09T08:45:09;23.30;;;8.43;;
21168;SDS011;10742;51.816;8.662;2023-10-09T08:48:21;22.37;;;8.33;;
21168;SDS011;10742;51.816;8.662;2023-10-09T08:51:24;20.67;;;8.03;;
21168;SDS011;10742;51.816;8.662;2023-10-09T08:54:28;19.63;;;7.90;;
21168;SDS011;10742;51.816;8.662;2023-10-09T08:57:35;20.45;;;8.55;;
21168;SDS011;10742;51.816;8.662;2023-10-09T09:00:42;24.10;;;8.90;;
21168;SDS011;10742;51.816;8.662;2023-10-09T09:03:48;19.57;;;7.87;;
21168;SDS011;10742;51.816;8.662;2023-10-09T09:06:52;20.33;;;7.70;;
21168;SDS011;10742;51.816;8.662;2023-10-09T09:09:57;18.65;;;7.53;;
21168;SDS011;10742;51.816;8.662;2023-10-09T09:13:18;20.57;;;7.93;;
21168;SDS011;10742;51.816;8.662;2023-10-09T09:16:21;22.53;;;7.90;;
21168;SDS011;10742;51.816;8.662;2023-10-09T09:19:31;19.63;;;8.00;;
21168;SDS011;10742;51.816;8.662;2023-10-09T09:22:51;21.45;;;8.15;;
21168;SDS011;10742;51.816;8.662;2023-10-09T09:26:01;18.92;;;7.78;;
21168;SDS011;10742;51.816;8.662;2023-10-09T09:29:12;22.08;;;8.27;;
21168;SDS011;10742;51.816;8.662;2023-10-09T09:32:15;17.65;;;7.55;;
21168;SDS011;10742;51.816;8.662;2023-10-09T09:35:22;22.10;;;8.40;;
21168;SDS011;10742;51.816;8.662;2023-10-09T09:38:30;23.88;;;8.68;;
21168;SDS011;10742;51.816;8.662;2023-10-09T09:41:53;24.33;;;8.75;;
21168;SDS011;10742;51.816;8.662;2023-10-09T09:45:17;22.27;;;8.30;;
21168;SDS011;10742;51.816;8.662;2023-10-09T09:48:24;23.45;;;8.93;;
21168;SDS011;10742;51.816;8.662;2023-10-09T09:51:33;19.90;;;7.88;;
21168;SDS011;10742;51.816;8.662;2023-10-09T09:54:36;24.20;;;8.60;;
21168;SDS011;10742;51.816;8.662;2023-10-09T09:57:40;22.45;;;6.97;;
21168;SDS011;10742;51.816;8.662;2023-10-09T10:00:48;19.30;;;7.25;;
21168;SDS011;10742;51.816;8.662;2023-10-09T10:07:16;19.60;;;7.82;;
21168;SDS011;10742;51.816;8.662;2023-10-09T10:10:39;20.40;;;7.97;;
21168;SDS011;10742;51.816;8.662;2023-10-09T10:14:06;16.50;;;6.50;;
21168;SDS011;10742;51.816;8.662;2023-10-09T10:17:13;20.27;;;7.55;;
21168;SDS011;10742;51.816;8.662;2023-10-09T10:20:23;23.73;;;7.80;;
21168;SDS011;10742;51.816;8.662;2023-10-09T10:23:25;18.95;;;7.88;;
21168;SDS011;10742;51.816;8.662;2023-10-09T10:26:34;22.75;;;8.23;;
21168;SDS011;10742;51.816;8.662;2023-10-09T10:29:36;22.85;;;8.13;;
21168;SDS011;10742;51.816;8.662;2023-10-09T10:33:01;19.45;;;7.38;;
21168;SDS011;10742;51.816;8.662;2023-10-09T10:36:17;22.50;;;8.48;;
21168;SDS011;10742;51.816;8.662;2023-10-09T10:39:25;19.33;;;8.23;;
21168;SDS011;10742;51.816;8.662;2023-10-09T10:42:49;22.38;;;7.90;;
21168;SDS011;10742;51.816;8.662;2023-10-09T10:46:11;15.82;;;6.72;;
21168;SDS011;10742;51.816;8.662;2023-10-09T10:49:36;20.25;;;7.43;;
21168;SDS011;10742;51.816;8.662;2023-10-09T10:52:39;23.45;;;8.07;;
21168;SDS011;10742;51.816;8.662;2023-10-09T10:55:54;21.45;;;8.02;;
21168;SDS011;10742;51.816;8.662;2023-10-09T10:59:19;21.77;;;8.48;;
21168;SDS011;10742;51.816;8.662;2023-10-09T11:02:25;22.45;;;7.90;;
21168;SDS011;10742;51.816;8.662;2023-10-09T11:05:29;22.73;;;8.27;;
21168;SDS011;10742;51.816;8.662;2023-10-09T11:08:44;21.02;;;7.95;;
21168;SDS011;10742;51.816;8.662;2023-10-09T11:11:56;19.48;;;6.93;;
21168;SDS011;10742;51.816;8.662;2023-10-09T11:15:15;17.15;;;7.90;;
21168;SDS011;10742;51.816;8.662;2023-10-09T11:18:24;22.92;;;8.48;;
21168;SDS011;10742;51.816;8.662;2023-10-09T11:21:30;21.98;;;8.57;;
21168;SDS011;10742;51.816;8.662;2023-10-09T11:24:35;22.10;;;8.65;;
21168;SDS011;10742;51.816;8.662;2023-10-09T11:27:39;25.75;;;8.40;;
21168;SDS011;10742;51.816;8.662;2023-10-09T11:30:52;23.23;;;9.35;;
21168;SDS011;10742;51.816;8.662;2023-10-09T11:34:00;25.25;;;9.20;;
21168;SDS011;10742;51.816;8.662;2023-10-09T11:40:27;25.75;;;8.73;;
21168;SDS011;10742;51.816;8.662;2023-10-09T11:43:47;25.45;;;9.23;;
21168;SDS011;10742;51.816;8.662;2023-10-09T11:47:00;22.85;;;8.82;;
21168;SDS011;10742;51.816;8.662;2023-10-09T11:50:21;21.50;;;8.45;;
21168;SDS011;10742;51.816;8.662;2023-10-09T11:54:04;22.70;;;9.88;;
21168;SDS011;10742;51.816;8.662;2023-10-09T11:57:10;108.95;;;64.13;;
21168;SDS011;10742;51.816;8.662;2023-10-09T12:00:13;74.30;;;46.65;;
21168;SDS011;10742;51.816;8.662;2023-10-09T12:03:31;33.25;;;17.65;;
21168;SDS011;10742;51.816;8.662;2023-10-09T12:06:34;28.55;;;13.48;;
21168;SDS011;10742;51.816;8.662;2023-10-09T12:09:37;28.05;;;11.38;;
21168;SDS011;10742;51.816;8.662;2023-10-09T12:12:40;26.08;;;12.75;;
21168;SDS011;10742;51.816;8.662;2023-10-09T12:15:48;27.67;;;12.05;;
21168;SDS011;10742;51.816;8.662;2023-10-09T12:18:54;26.33;;;12.30;;
21168;SDS011;10742;51.816;8.662;2023-10-09T12:21:57;28.25;;;13.32;;
21168;SDS011;10742;51.816;8.662;2023-10-09T12:25:02;27.15;;;13.40;;
21168;SDS011;10742;51.816;8.662;2023-10-09T12:28:11;28.27;;;12.75;;
21168;SDS011;10742;51.816;8.662;2023-10-09T12:31:14;27.85;;;13.80;;
21168;SDS011;10742;51.816;8.662;2023-10-09T12:34:17;23.80;;;10.88;;
21168;SDS011;10742;51.816;8.662;2023-10-09T12:37:20;28.15;;;12.82;;
21168;SDS011;10742;51.816;8.662;2023-10-09T12:40:23;29.98;;;12.63;;
21168;SDS011;10742;51.816;8.662;2023-10-09T12:43:32;25.80;;;12.68;;
21168;SDS011;10742;51.816;8.662;2023-10-09T12:46:39;27.58;;;11.98;;
21168;SDS011;10742;51.816;8.662;2023-10-09T12:49:42;23.02;;;11.13;;
21168;SDS011;10742;51.816;8.662;2023-10-09T12:52:45;25.80;;;11.07;;
21168;SDS011;10742;51.816;8.662;2023-10-09T12:55:50;22.58;;;10.13;;
21168;SDS011;10742;51.816;8.662;2023-10-09T12:59:01;25.63;;;11.68;;
21168;SDS011;10742;51.816;8.662;2023-10-09T13:02:06;29.48;;;11.68;;
21168;SDS011;10742;51.816;8.662;2023-10-09T13:05:12;27.50;;;10.70;;
21168;SDS011;10742;51.816;8.662;2023-10-09T13:08:28;25.52;;;10.60;;
21168;SDS011;10742;51.816;8.662;2023-10-09T13:11:36;24.95;;;10.38;;
21168;SDS011;10742;51.816;8.662;2023-10-09T13:14:39;25.27;;;10.85;;
21168;SDS011;10742;51.816;8.662;2023-10-09T13:17:43;23.63;;;10.50;;
21168;SDS011;10742;51.816;8.662;2023-10-09T13:20:45;23.02;;;9.05;;
21168;SDS011;10742;51.816;8.662;2023-10-09T13:23:48;23.80;;;10.07;;
21168;SDS011;10742;51.816;8.662;2023-10-09T13:26:59;25.15;;;10.40;;
21168;SDS011;10742;51.816;8.662;2023-10-09T13:30:03;25.67;;;10.48;;
21168;SDS011;10742;51.816;8.662;2023-10-09T13:33:09;27.35;;;10.68;;
21168;SDS011;10742;51.816;8.662;2023-10-09T13:36:18;27.08;;;11.10;;
21168;SDS011;10742;51.816;8.662;2023-10-09T13:39:28;22.20;;;9.70;;
21168;SDS011;10742;51.816;8.662;2023-10-09T13:42:40;25.10;;;10.45;;
21168;SDS011;10742;51.816;8.662;2023-10-09T13:45:43;24.05;;;10.52;;
21168;SDS011;10742;51.816;8.662;2023-10-09T13:48:51;25.25;;;10.30;;
21168;SDS011;10742;51.816;8.662;2023-10-09T13:51:55;23.70;;;9.43;;
21168;SDS011;10742;51.816;8.662;2023-10-09T13:55:02;23.25;;;9.93;;
21168;SDS011;10742;51.816;8.662;2023-10-09T13:58:17;22.88;;;9.30;;
21168;SDS011;10742;51.816;8.662;2023-10-09T14:01:22;21.17;;;8.75;;
21168;SDS011;10742;51.816;8.662;2023-10-09T14:04:32;28.45;;;9.55;;
21168;SDS011;10742;51.816;8.662;2023-10-09T14:07:36;23.88;;;10.07;;
21168;SDS011;10742;51.816;8.662;2023-10-09T14:10:39;24.33;;;9.35;;
21168;SDS011;10742;51.816;8.662;2023-10-09T14:13:41;24.83;;;9.88;;
21168;SDS011;10742;51.816;8.662;2023-10-09T14:16:44;25.95;;;9.52;;
21168;SDS011;10742;51.816;8.662;2023-10-09T14:19:47;25.13;;;9.18;;
21168;SDS011;10742;51.816;8.662;2023-10-09T14:22:50;22.63;;;9.15;;
21168;SDS011;10742;51.816;8.662;2023-10-09T14:25:54;28.90;;;10.07;;
21168;SDS011;10742;51.816;8.662;2023-10-09T14:28:58;22.10;;;8.50;;
21168;SDS011;10742;51.816;8.662;2023-10-09T14:32:00;26.77;;;11.13;;
21168;SDS011;10742;51.816;8.662;2023-10-09T14:35:02;25.13;;;9.88;;
21168;SDS011;10742;51.816;8.662;2023-10-09T14:38:14;22.30;;;9.02;;
21168;SDS011;10742;51.816;8.662;2023-10-09T14:41:17;24.75;;;9.50;;
21168;SDS011;10742;51.816;8.662;2023-10-09T14:44:25;25.17;;;9.90;;
21168;SDS011;10742;51.816;8.662;2023-10-09T14:47:29;24.40;;;9.13;;
21168;SDS011;10742;51.816;8.662;2023-10-09T14:50:32;23.67;;;8.82;;
21168;SDS011;10742;51.816;8.662;2023-10-09T14:53:40;22.52;;;8.27;;
21168;SDS011;10742;51.816;8.662;2023-10-09T14:56:42;19.33;;;7.95;;
21168;SDS011;10742;51.816;8.662;2023-10-09T15:03:24;19.27;;;7.53;;
21168;SDS011;10742;51.816;8.662;2023-10-09T15:06:29;24.83;;;9.77;;
21168;SDS011;10742;51.816;8.662;2023-10-09T15:09:32;19.50;;;9.02;;
21168;SDS011;10742;51.816;8.662;2023-10-09T15:12:37;20.45;;;7.47;;
21168;SDS011;10742;51.816;8.662;2023-10-09T15:15:44;21.38;;;7.85;;
21168;SDS011;10742;51.816;8.662;2023-10-09T15:18:48;20.02;;;8.27;;
21168;SDS011;10742;51.816;8.662;2023-10-09T15:21:54;25.65;;;9.25;;
21168;SDS011;10742;51.816;8.662;2023-10-09T15:24:57;22.65;;;9.10;;
21168;SDS011;10742;51.816;8.662;2023-10-09T15:28:00;17.20;;;6.82;;
21168;SDS011;10742;51.816;8.662;2023-10-09T15:31:07;20.13;;;7.10;;
21168;SDS011;10742;51.816;8.662;2023-10-09T15:34:13;25.92;;;8.95;;
21168;SDS011;10742;51.816;8.662;2023-10-09T15:37:16;23.25;;;8.50;;
21168;SDS011;10742;51.816;8.662;2023-10-09T15:40:19;25.50;;;8.93;;
21168;SDS011;10742;51.816;8.662;2023-10-09T15:43:26;22.23;;;8.65;;
21168;SDS011;10742;51.816;8.662;2023-10-09T15:46:28;23.92;;;9.27;;
21168;SDS011;10742;51.816;8.662;2023-10-09T15:49:36;23.80;;;8.98;;
21168;SDS011;10742;51.816;8.662;2023-10-09T15:52:48;20.33;;;8.50;;
21168;SDS011;10742;51.816;8.662;2023-10-09T15:55:53;21.98;;;8.18;;
21168;SDS011;10742;51.816;8.662;2023-10-09T15:58:59;20.98;;;8.45;;
21168;SDS011;10742;51.816;8.662;2023-10-09T16:02:01;22.52;;;9.35;;
21168;SDS011;10742;51.816;8.662;2023-10-09T16:05:05;23.70;;;8.70;;
21168;SDS011;10742;51.816;8.662;2023-10-09T16:08:08;22.98;;;9.32;;
21168;SDS011;10742;51.816;8.662;2023-10-09T16:11:11;21.15;;;9.07;;
21168;SDS011;10742;51.816;8.662;2023-10-09T16:14:35;21.98;;;8.93;;
21168;SDS011;10742;51.816;8.662;2023-10-09T16:17:51;24.88;;;9.60;;
21168;SDS011;10742;51.816;8.662;2023-10-09T16:21:00;20.27;;;7.70;;
21168;SDS011;10742;51.816;8.662;2023-10-09T16:24:06;23.10;;;8.60;;
21168;SDS011;10742;51.816;8.662;2023-10-09T16:27:11;21.63;;;8.68;;
21168;SDS011;10742;51.816;8.662;2023-10-09T16:30:16;26.02;;;9.48;;
21168;SDS011;10742;51.816;8.662;2023-10-09T16:33:23;19.40;;;7.97;;
21168;SDS011;10742;51.816;8.662;2023-10-09T16:36:27;18.73;;;7.53;;
21168;SDS011;10742;51.816;8.662;2023-10-09T16:39:30;19.42;;;7.53;;
21168;SDS011;10742;51.816;8.662;2023-10-09T16:42:49;22.10;;;8.35;;
21168;SDS011;10742;51.816;8.662;2023-10-09T16:45:55;21.85;;;8.68;;
21168;SDS011;10742;51.816;8.662;2023-10-09T16:49:00;25.85;;;8.85;;
21168;SDS011;10742;51.816;8.662;2023-10-09T16:52:06;22.95;;;9.25;;
21168;SDS011;10742;51.816;8.662;2023-10-09T16:55:13;22.95;;;8.98;;
21168;SDS011;10742;51.816;8.662;2023-10-09T16:58:17;25.08;;;10.05;;
21168;SDS011;10742;51.816;8.662;2023-10-09T17:01:19;22.33;;;8.82;;
21168;SDS011;10742;51.816;8.662;2023-10-09T17:04:22;25.30;;;9.70;;
21168;SDS011;10742;51.816;8.662;2023-10-09T17:07:28;23.63;;;9.23;;
21168;SDS011;10742;51.816;8.662;2023-10-09T17:10:36;22.80;;;8.75;;
21168;SDS011;10742;51.816;8.662;2023-10-09T17:13:46;27.48;;;9.45;;
21168;SDS011;10742;51.816;8.662;2023-10-09T17:16:51;28.40;;;11.18;;
21168;SDS011;10742;51.816;8.662;2023-10-09T17:19:56;24.67;;;11.15;;
21168;SDS011;10742;51.816;8.662;2023-10-09T17:22:59;25.08;;;9.60;;
21168;SDS011;10742;51.816;8.662;2023-10-09T17:26:05;24.75;;;9.68;;
21168;SDS011;10742;51.816;8.662;2023-10-09T17:29:12;21.02;;;8.18;;
21168;SDS011;10742;51.816;8.662;2023-10-09T17:32:15;25.58;;;9.85;;
21168;SDS011;10742;51.816;8.662;2023-10-09T17:35:18;24.30;;;10.00;;
21168;SDS011;10742;51.816;8.662;2023-10-09T17:38:20;25.38;;;9.77;;
21168;SDS011;10742;51.816;8.662;2023-10-09T17:41:22;21.42;;;9.68;;
21168;SDS011;10742;51.816;8.662;2023-10-09T17:44:25;27.58;;;10.82;;
21168;SDS011;10742;51.816;8.662;2023-10-09T17:47:29;25.58;;;10.27;;
21168;SDS011;10742;51.816;8.662;2023-10-09T17:50:31;28.10;;;10.82;;
21168;SDS011;10742;51.816;8.662;2023-10-09T17:53:37;26.60;;;10.05;;
21168;SDS011;10742;51.816;8.662;2023-10-09T17:56:46;95.10;;;48.10;;
21168;SDS011;10742;51.816;8.662;2023-10-09T17:59:49;110.20;;;55.60;;
21168;SDS011;10742;51.816;8.662;2023-10-09T18:02:54;39.42;;;20.38;;
21168;SDS011;10742;51.816;8.662;2023-10-09T18:06:01;33.65;;;16.58;;
21168;SDS011;10742;51.816;8.662;2023-10-09T18:09:05;32.75;;;14.98;;
21168;SDS011;10742;51.816;8.662;2023-10-09T18:12:18;157.13;;;93.50;;
21168;SDS011;10742;51.816;8.662;2023-10-09T18:15:22;120.43;;;71.85;;
21168;SDS011;10742;51.816;8.662;2023-10-09T18:18:25;134.07;;;77.85;;
21168;SDS011;10742;51.816;8.662;2023-10-09T18:21:27;107.80;;;61.30;;
21168;SDS011;10742;51.816;8.662;2023-10-09T18:24:29;56.00;;;34.95;;
21168;SDS011;10742;51.816;8.662;2023-10-09T18:27:38;71.85;;;43.70;;
21168;SDS011;10742;51.816;8.662;2023-10-09T18:30:40;56.70;;;34.88;;
21168;SDS011;10742;51.816;8.662;2023-10-09T18:33:47;56.72;;;38.05;;
21168;SDS011;10742;51.816;8.662;2023-10-09T18:36:55;31.17;;;18.13;;
21168;SDS011;10742;51.816;8.662;2023-10-09T18:39:58;27.17;;;14.70;;
21168;SDS011;10742;51.816;8.662;2023-10-09T18:43:02;34.85;;;16.38;;
21168;SDS011;10742;51.816;8.662;2023-10-09T18:46:10;34.90;;;14.30;;
21168;SDS011;10742;51.816;8.662;2023-10-09T18:49:13;31.80;;;13.55;;
21168;SDS011;10742;51.816;8.662;2023-10-09T18:52:16;29.83;;;13.18;;
21168;SDS011;10742;51.816;8.662;2023-10-09T18:55:18;30.08;;;13.90;;
21168;SDS011;10742;51.816;8.662;2023-10-09T18:58:22;26.02;;;11.88;;
21168;SDS011;10742;51.816;8.662;2023-10-09T19:01:24;28.50;;;11.45;;
21168;SDS011;10742;51.816;8.662;2023-10-09T19:04:27;25.00;;;11.18;;
21168;SDS011;10742;51.816;8.662;2023-10-09T19:07:36;25.92;;;11.45;;
21168;SDS011;10742;51.816;8.662;2023-10-09T19:10:40;24.88;;;10.98;;
21168;SDS011;10742;51.816;8.662;2023-10-09T19:13:43;27.52;;;11.13;;
21168;SDS011;10742;51.816;8.662;2023-10-09T19:16:46;26.05;;;11.48;;
21168;SDS011;10742;51.816;8.662;2023-10-09T19:19:48;26.95;;;11.52;;